Terminal Aerodrome Forecast
Issued by NWS

Home | Current Version | Previous Version | Text Only | Print | Product List | Glossary On
Versions: 1 2 3 4 5 6 7 8 9 10 11 12 13 14
171
FTUS41 KLWX 241812 AAA
TAFMTN
TAF AMD
KMTN 241812Z 2418/2518 18014KT P6SM SCT120
     FM250000 19007KT P6SM SCT140
     FM250300 21006KT P6SM BKN130
     FM250700 22004KT P6SM BKN130=

USA.gov is the U.S. government's official web portal to all federal, state and local government web resources and services.